createdAt,value
2019-05-22T00:01:17.023Z,101304.15
2019-05-22T00:03:57.542Z,101302.84
2019-05-22T00:06:28.061Z,101297.12
2019-05-22T00:08:54.318Z,101304.44
2019-05-22T00:11:29.382Z,101307.93
2019-05-22T00:13:55.352Z,101314.59
2019-05-22T00:16:22.194Z,101311.99
2019-05-22T00:18:50.668Z,101302.73
2019-05-22T00:21:16.622Z,101308.58
2019-05-22T00:23:44.244Z,101307.54
2019-05-22T00:26:11.202Z,101308.19
2019-05-22T00:28:38.653Z,101307.34
2019-05-22T00:31:06.253Z,101312.14
2019-05-22T00:33:31.822Z,101309.14
2019-05-22T00:35:59.785Z,101314.81
2019-05-22T00:38:25.360Z,101317.49
2019-05-22T00:40:58.965Z,101313.48
2019-05-22T00:43:38.405Z,101314.31
2019-05-22T00:46:05.303Z,101318.93
2019-05-22T00:48:32.171Z,101317.60
2019-05-22T00:51:19.730Z,101309.97
2019-05-22T00:53:58.933Z,101316.48
2019-05-22T00:56:39.519Z,101319.63
2019-05-22T00:59:11.712Z,101323.80
2019-05-22T01:01:44.859Z,101325.03
2019-05-22T01:04:11.558Z,101319.63
2019-05-22T01:06:38.937Z,101327.30
2019-05-22T01:09:09.206Z,101322.78
2019-05-22T01:11:36.892Z,101327.61
2019-05-22T01:14:05.224Z,101323.65
2019-05-22T01:16:32.946Z,101330.22
2019-05-22T01:19:00.066Z,101331.08
2019-05-22T01:21:26.738Z,101337.42
2019-05-22T01:23:53.622Z,101336.44
2019-05-22T01:26:21.249Z,101340.79
2019-05-22T01:28:48.568Z,101341.23
2019-05-22T01:31:22.670Z,101337.63
2019-05-22T01:34:05.803Z,101348.60
2019-05-22T01:36:47.227Z,101344.20
2019-05-22T01:39:55.085Z,101344.34
2019-05-22T01:42:28.308Z,101350.24
2019-05-22T01:45:05.000Z,101349.22
2019-05-22T01:47:48.708Z,101354.98
2019-05-22T01:50:24.351Z,101348.87
2019-05-22T01:52:51.899Z,101354.39
2019-05-22T01:55:20.785Z,101360.78
2019-05-22T01:57:54.025Z,101359.03
2019-05-22T02:00:20.618Z,101354.41
2019-05-22T02:02:47.366Z,101351.83
2019-05-22T02:05:14.622Z,101360.00
2019-05-22T02:07:41.997Z,101360.22
2019-05-22T02:10:08.883Z,101359.73
2019-05-22T02:12:53.087Z,101355.59
2019-05-22T02:15:19.697Z,101365.19
2019-05-22T02:17:47.446Z,101364.70
2019-05-22T02:20:14.142Z,101368.92
2019-05-22T02:22:40.738Z,101367.91
2019-05-22T02:25:08.398Z,101370.58
2019-05-22T02:27:34.298Z,101360.29
2019-05-22T02:30:02.324Z,101372.19
2019-05-22T02:32:29.459Z,101365.14
2019-05-22T02:34:59.317Z,101364.61
2019-05-22T02:37:25.432Z,101371.33
2019-05-22T02:39:51.984Z,101369.95
2019-05-22T02:42:26.693Z,101373.38
2019-05-22T02:44:52.817Z,101377.00
2019-05-22T02:47:21.571Z,101386.30
2019-05-22T02:49:48.803Z,101386.56
2019-05-22T02:52:16.764Z,101383.63
2019-05-22T02:54:44.308Z,101393.66
2019-05-22T02:57:11.808Z,101388.33
2019-05-22T02:59:37.428Z,101386.13
2019-05-22T03:02:04.761Z,101394.23
2019-05-22T03:04:57.632Z,101394.39
2019-05-22T03:07:24.777Z,101401.04
2019-05-22T03:09:50.775Z,101396.50
2019-05-22T03:12:17.038Z,101399.20
2019-05-22T03:14:43.503Z,101402.87
2019-05-22T03:17:30.818Z,101398.59
2019-05-22T03:20:00.024Z,101397.88
2019-05-22T03:22:30.808Z,101400.31
2019-05-22T03:25:00.184Z,101402.30
2019-05-22T03:27:42.610Z,101408.22
2019-05-22T03:30:15.005Z,101405.65
2019-05-22T03:32:43.870Z,101402.83
2019-05-22T03:35:08.584Z,101403.27
2019-05-22T03:37:34.430Z,101408.80
2019-05-22T03:39:59.947Z,101418.23
2019-05-22T03:42:26.008Z,101415.72
2019-05-22T03:44:53.888Z,101422.22
2019-05-22T03:47:21.049Z,101423.55
2019-05-22T03:49:48.473Z,101420.79
2019-05-22T03:52:15.180Z,101418.48
2019-05-22T03:54:42.035Z,101421.33
2019-05-22T03:57:07.715Z,101420.22
2019-05-22T03:59:33.517Z,101420.37
2019-05-22T04:02:00.489Z,101426.13
2019-05-22T04:04:40.479Z,101427.36
2019-05-22T04:07:08.558Z,101425.25
2019-05-22T04:09:34.956Z,101424.06
2019-05-22T04:12:02.159Z,101420.88
2019-05-22T04:14:37.821Z,101420.06
2019-05-22T04:17:05.276Z,101425.25
2019-05-22T04:19:47.438Z,101425.81
2019-05-22T04:21:58.221Z,101430.50
2019-05-22T04:24:24.080Z,101428.97
2019-05-22T04:26:51.182Z,101436.50
2019-05-22T04:29:16.924Z,101442.03
2019-05-22T04:31:58.321Z,101443.34
2019-05-22T04:34:23.950Z,101443.06
2019-05-22T04:36:51.594Z,101446.33
2019-05-22T04:39:24.473Z,101444.79
2019-05-22T04:41:50.088Z,101451.21
2019-05-22T04:44:16.313Z,101454.25
2019-05-22T04:46:43.714Z,101458.70
2019-05-22T04:49:09.980Z,101453.31
2019-05-22T04:51:36.443Z,101464.70
2019-05-22T04:54:02.408Z,101463.08
2019-05-22T04:56:29.641Z,101465.73
2019-05-22T04:58:56.014Z,101460.78
2019-05-22T05:01:23.168Z,101460.51
2019-05-22T05:03:49.165Z,101458.59
2019-05-22T05:06:26.604Z,101465.92
2019-05-22T05:08:52.406Z,101470.63
2019-05-22T05:11:18.550Z,101468.08
2019-05-22T05:13:44.059Z,101470.42
2019-05-22T05:16:09.690Z,101477.95
2019-05-22T05:18:35.979Z,101474.37
2019-05-22T05:21:01.994Z,101478.59
2019-05-22T05:23:28.296Z,101476.22
2019-05-22T05:25:53.775Z,101476.91
2019-05-22T05:28:20.668Z,101478.32
2019-05-22T05:30:46.323Z,101482.26
2019-05-22T05:33:11.955Z,101480.33
2019-05-22T05:35:42.404Z,101483.17
2019-05-22T05:38:08.936Z,101482.38
2019-05-22T05:40:42.497Z,101483.06
2019-05-22T05:43:10.770Z,101481.63
2019-05-22T05:45:46.408Z,101486.47
2019-05-22T05:48:17.003Z,101491.62
2019-05-22T05:51:02.301Z,101495.08
2019-05-22T05:53:29.429Z,101497.22
2019-05-22T05:56:31.981Z,101491.30
2019-05-22T05:58:59.548Z,101494.04
2019-05-22T06:01:30.599Z,101499.06
2019-05-22T06:03:58.943Z,101508.78
2019-05-22T06:07:19.217Z,101504.91
2019-05-22T06:09:47.204Z,101500.02
2019-05-22T06:12:15.961Z,101506.56
2019-05-22T06:14:43.263Z,101510.03
2019-05-22T06:18:26.988Z,101525.66
2019-05-22T06:21:03.899Z,101520.91
2019-05-22T06:24:23.441Z,101520.64
2019-05-22T06:27:18.980Z,101519.61
2019-05-22T06:29:57.267Z,101533.69
2019-05-22T06:33:08.528Z,101527.24
2019-05-22T06:35:37.694Z,101527.55
2019-05-22T06:38:48.677Z,101526.42
2019-05-22T06:41:14.510Z,101531.48
2019-05-22T06:44:32.800Z,101533.43
2019-05-22T06:47:00.425Z,101529.16
2019-05-22T06:49:44.305Z,101520.91
2019-05-22T06:52:10.693Z,101526.39
2019-05-22T06:54:36.454Z,101535.48
2019-05-22T06:57:02.142Z,101539.39
2019-05-22T06:59:27.625Z,101532.77
2019-05-22T07:02:02.021Z,101533.73
2019-05-22T07:04:29.269Z,101534.25
2019-05-22T07:06:55.815Z,101537.86
2019-05-22T07:09:23.016Z,101534.93
2019-05-22T07:11:49.081Z,101544.55
2019-05-22T07:14:15.854Z,101544.59
2019-05-22T07:16:59.209Z,101552.99
2019-05-22T07:19:27.322Z,101546.88
2019-05-22T07:21:53.344Z,101551.04
2019-05-22T07:24:20.003Z,101544.89
2019-05-22T07:26:46.832Z,101555.26
2019-05-22T07:29:13.568Z,101561.66
2019-05-22T07:31:39.824Z,101552.30
2019-05-22T07:34:05.833Z,101553.45
2019-05-22T07:36:34.101Z,101554.89
2019-05-22T07:38:59.633Z,101553.56
2019-05-22T07:41:25.244Z,101554.36
2019-05-22T07:43:50.725Z,101559.33
2019-05-22T07:46:16.758Z,101552.59
2019-05-22T07:48:43.578Z,101560.11
2019-05-22T07:51:10.235Z,101563.17
2019-05-22T07:53:35.719Z,101563.20
2019-05-22T07:56:05.211Z,101567.42
2019-05-22T07:58:33.171Z,101563.67
2019-05-22T08:01:01.893Z,101565.17
2019-05-22T08:03:28.629Z,101566.44
2019-05-22T08:05:57.822Z,101560.22
2019-05-22T08:08:25.074Z,101561.94
2019-05-22T08:10:51.308Z,101561.64
2019-05-22T08:13:17.563Z,101567.11
2019-05-22T08:15:43.035Z,101561.10
2019-05-22T08:18:09.439Z,101558.20
2019-05-22T08:20:36.760Z,101560.17
2019-05-22T08:23:03.490Z,101566.84
2019-05-22T08:25:29.534Z,101563.85
2019-05-22T08:27:56.294Z,101558.01
2019-05-22T08:30:22.116Z,101565.74
2019-05-22T08:32:47.869Z,101566.84
2019-05-22T08:35:14.022Z,101565.86
2019-05-22T08:37:40.867Z,101565.79
2019-05-22T08:40:07.928Z,101573.06
2019-05-22T08:42:35.617Z,101568.63
2019-05-22T08:45:01.660Z,101577.31
2019-05-22T08:47:27.288Z,101573.59
2019-05-22T08:49:53.225Z,101576.41
2019-05-22T08:52:23.477Z,101579.63
2019-05-22T08:54:49.868Z,101573.09
2019-05-22T08:57:15.798Z,101571.63
2019-05-22T08:59:41.285Z,101573.76
2019-05-22T09:02:08.701Z,101572.94
2019-05-22T09:04:34.093Z,101567.56
2019-05-22T09:06:59.602Z,101562.86
2019-05-22T09:09:26.422Z,101569.45
2019-05-22T09:11:51.989Z,101574.16
2019-05-22T09:14:17.455Z,101581.22
2019-05-22T09:16:43.962Z,101573.79
2019-05-22T09:19:09.857Z,101574.64
2019-05-22T09:21:35.471Z,101564.19
2019-05-22T09:24:03.188Z,101567.28
2019-05-22T09:26:29.684Z,101570.70
2019-05-22T09:28:55.345Z,101567.78
2019-05-22T09:31:21.189Z,101571.87
2019-05-22T09:33:46.828Z,101562.13
2019-05-22T09:36:13.187Z,101569.85
2019-05-22T09:38:38.732Z,101563.80
2019-05-22T09:41:05.508Z,101566.73
2019-05-22T09:43:30.946Z,101567.69
2019-05-22T09:45:56.415Z,101563.53
2019-05-22T09:48:21.871Z,101566.38
2019-05-22T09:50:47.492Z,101564.95
2019-05-22T09:53:13.665Z,101571.12
2019-05-22T09:55:39.552Z,101568.98
2019-05-22T09:58:05.796Z,101574.62
2019-05-22T10:00:32.953Z,101579.75
2019-05-22T10:02:58.670Z,101578.08
2019-05-22T10:05:24.070Z,101568.91
2019-05-22T10:08:00.312Z,101576.19
2019-05-22T10:10:18.330Z,101584.27
2019-05-22T10:12:43.908Z,101576.34
2019-05-22T10:15:11.196Z,101576.55
2019-05-22T10:17:38.869Z,101577.62
2019-05-22T10:20:05.593Z,101580.30
2019-05-22T10:22:34.354Z,101574.41
2019-05-22T10:25:15.094Z,101577.73
2019-05-22T10:27:28.137Z,101579.55
2019-05-22T10:29:54.813Z,101583.17
2019-05-22T10:32:20.717Z,101581.95
2019-05-22T10:34:46.642Z,101578.00
2019-05-22T10:37:12.986Z,101580.61
2019-05-22T10:39:39.772Z,101577.62
2019-05-22T10:42:05.677Z,101579.84
2019-05-22T10:44:31.903Z,101572.92
2019-05-22T10:46:57.534Z,101567.35
2019-05-22T10:49:23.075Z,101573.80
2019-05-22T10:51:48.887Z,101566.94
2019-05-22T10:54:14.626Z,101564.30
2019-05-22T10:56:40.121Z,101561.63
2019-05-22T10:59:07.103Z,101553.50
2019-05-22T11:01:37.270Z,101561.00
2019-05-22T11:04:01.144Z,101566.88
2019-05-22T11:06:27.222Z,101559.14
2019-05-22T11:08:52.891Z,101558.33
2019-05-22T11:11:18.543Z,101555.30
2019-05-22T11:13:59.806Z,101558.45
2019-05-22T11:16:13.245Z,101555.55
2019-05-22T11:18:38.982Z,101555.61
2019-05-22T11:21:04.856Z,101564.77
2019-05-22T11:23:30.322Z,101558.41
2019-05-22T11:25:57.981Z,101561.03
2019-05-22T11:28:24.467Z,101561.45
2019-05-22T11:30:49.997Z,101555.91
2019-05-22T11:33:15.642Z,101557.23
2019-05-22T11:35:41.799Z,101567.23
2019-05-22T11:38:07.360Z,101561.37
2019-05-22T11:40:33.676Z,101554.55
2019-05-22T11:42:59.200Z,101544.27
2019-05-22T11:45:25.384Z,101551.66
2019-05-22T11:47:50.993Z,101551.20
2019-05-22T11:50:18.061Z,101547.34
2019-05-22T11:52:43.964Z,101544.59
2019-05-22T11:55:11.062Z,101544.00
2019-05-22T11:57:40.275Z,101548.26
2019-05-22T12:00:09.283Z,101542.61
2019-05-22T12:02:34.676Z,101537.08
2019-05-22T12:05:00.243Z,101539.54
2019-05-22T12:07:25.750Z,101534.72
2019-05-22T12:09:51.269Z,101528.94
2019-05-22T12:12:23.577Z,101521.42
2019-05-22T12:14:49.299Z,101519.53
2019-05-22T12:17:15.303Z,101519.68
2019-05-22T12:19:41.063Z,101521.08
2019-05-22T12:22:07.641Z,101519.80
2019-05-22T12:24:37.188Z,101529.77
2019-05-22T12:27:00.969Z,101535.36
2019-05-22T12:29:27.142Z,101534.35
2019-05-22T12:31:53.478Z,101531.11
2019-05-22T12:34:19.711Z,101534.10
2019-05-22T12:36:45.995Z,101532.63
2019-05-22T12:39:16.633Z,101534.66
2019-05-22T12:41:43.845Z,101538.33
2019-05-22T12:44:10.039Z,101531.47
2019-05-22T12:46:36.590Z,101529.84
2019-05-22T12:49:09.048Z,101523.82
2019-05-22T12:51:34.707Z,101528.78
2019-05-22T12:54:00.403Z,101526.50
2019-05-22T12:56:26.310Z,101521.78
2019-05-22T12:58:53.887Z,101519.89
2019-05-22T13:01:21.001Z,101522.76
2019-05-22T13:03:48.757Z,101518.59
2019-05-22T13:06:14.733Z,101522.70
2019-05-22T13:08:41.078Z,101510.78
2019-05-22T13:11:07.802Z,101521.41
2019-05-22T13:13:33.554Z,101512.02
2019-05-22T13:16:02.093Z,101511.71
2019-05-22T13:18:30.262Z,101503.24
2019-05-22T13:20:57.432Z,101501.94
2019-05-22T13:23:26.788Z,101501.17
2019-05-22T13:25:54.948Z,101502.48
2019-05-22T13:28:21.354Z,101495.30
2019-05-22T13:30:53.624Z,101497.31
2019-05-22T13:33:24.744Z,101497.42
2019-05-22T13:35:51.986Z,101492.92
2019-05-22T13:38:19.524Z,101487.19
2019-05-22T13:40:49.971Z,101486.61
2019-05-22T13:43:16.435Z,101487.87
2019-05-22T13:45:42.861Z,101488.23
2019-05-22T13:48:09.117Z,101487.37
2019-05-22T13:50:34.812Z,101490.20
2019-05-22T13:53:03.235Z,101489.88
2019-05-22T13:55:29.436Z,101493.47
2019-05-22T13:57:55.785Z,101488.34
2019-05-22T14:00:25.451Z,101489.75
2019-05-22T14:02:51.524Z,101497.48
2019-05-22T14:05:18.461Z,101497.02
2019-05-22T14:07:44.030Z,101496.23
2019-05-22T14:10:14.009Z,101498.34
2019-05-22T14:12:42.198Z,101495.72
2019-05-22T14:15:08.011Z,101494.41
2019-05-22T14:17:34.020Z,101492.97
2019-05-22T14:20:00.264Z,101486.43
2019-05-22T14:22:26.063Z,101479.89
2019-05-22T14:24:51.861Z,101477.83
2019-05-22T14:27:17.444Z,101481.37
2019-05-22T14:29:43.653Z,101487.92
2019-05-22T14:32:13.421Z,101486.48
2019-05-22T14:34:38.965Z,101488.45
2019-05-22T14:37:05.281Z,101486.56
2019-05-22T14:39:32.742Z,101488.22
2019-05-22T14:41:59.073Z,101496.60
2019-05-22T14:44:25.002Z,101493.09
2019-05-22T14:46:52.164Z,101497.54
2019-05-22T14:49:20.821Z,101488.09
2019-05-22T14:51:45.958Z,101494.67
2019-05-22T14:54:12.458Z,101491.90
2019-05-22T14:56:39.193Z,101494.91
2019-05-22T14:59:05.395Z,101486.39
2019-05-22T15:01:31.149Z,101489.70
2019-05-22T15:03:58.557Z,101495.00
2019-05-22T15:06:24.148Z,101492.96
2019-05-22T15:08:49.978Z,101484.16
2019-05-22T15:11:16.925Z,101485.66
2019-05-22T15:13:42.913Z,101483.05
2019-05-22T15:16:18.663Z,101477.37
2019-05-22T15:18:44.608Z,101477.37
2019-05-22T15:21:11.613Z,101471.92
2019-05-22T15:23:50.100Z,101469.50
2019-05-22T15:26:20.138Z,101471.53
2019-05-22T15:28:46.339Z,101470.73
2019-05-22T15:31:14.088Z,101466.98
2019-05-22T15:33:41.252Z,101464.28
2019-05-22T15:36:10.852Z,101463.80
2019-05-22T15:38:41.073Z,101461.89
2019-05-22T15:41:08.509Z,101457.45
2019-05-22T15:43:34.661Z,101447.66
2019-05-22T15:46:03.632Z,101454.04
2019-05-22T15:48:34.754Z,101446.78
2019-05-22T15:51:10.699Z,101443.81
2019-05-22T15:53:39.854Z,101451.96
2019-05-22T15:57:00.016Z,101452.42
2019-05-22T15:59:28.937Z,101442.41
2019-05-22T16:01:55.230Z,101447.83
2019-05-22T16:04:24.402Z,101443.87
2019-05-22T16:06:51.752Z,101449.33
2019-05-22T16:09:20.495Z,101451.60
2019-05-22T16:11:53.084Z,101450.48
2019-05-22T16:14:21.139Z,101447.09
2019-05-22T16:16:51.373Z,101452.25
2019-05-22T16:19:17.789Z,101451.26
2019-05-22T16:21:48.540Z,101442.19
2019-05-22T16:24:16.945Z,101441.42
2019-05-22T16:26:44.010Z,101443.59
2019-05-22T16:29:10.306Z,101445.47
2019-05-22T16:31:39.706Z,101442.45
2019-05-22T16:34:06.979Z,101442.31
2019-05-22T16:36:33.986Z,101435.23
2019-05-22T16:39:00.953Z,101438.81
2019-05-22T16:41:29.122Z,101436.99
2019-05-22T16:43:56.498Z,101431.64
2019-05-22T16:46:24.368Z,101433.17
2019-05-22T16:48:51.542Z,101434.75
2019-05-22T16:51:18.644Z,101431.36
2019-05-22T16:53:50.942Z,101440.00
2019-05-22T16:56:17.369Z,101435.20
2019-05-22T16:58:43.859Z,101434.25
2019-05-22T17:01:11.280Z,101434.86
2019-05-22T17:03:38.234Z,101426.34
2019-05-22T17:06:04.747Z,101430.27
2019-05-22T17:08:31.046Z,101431.16
2019-05-22T17:10:58.634Z,101436.14
2019-05-22T17:13:25.730Z,101430.90
2019-05-22T17:15:54.024Z,101434.91
2019-05-22T17:18:21.309Z,101432.06
2019-05-22T17:20:47.902Z,101437.22
2019-05-22T17:23:14.416Z,101430.59
2019-05-22T17:25:40.386Z,101432.80
2019-05-22T17:28:08.649Z,101428.71
2019-05-22T17:30:37.141Z,101432.79
2019-05-22T17:33:05.389Z,101428.47
2019-05-22T17:35:32.298Z,101435.78
2019-05-22T17:37:58.526Z,101434.42
2019-05-22T17:40:25.460Z,101434.33
2019-05-22T17:42:53.357Z,101429.78
2019-05-22T17:45:22.877Z,101422.07
2019-05-22T17:47:54.714Z,101427.30
2019-05-22T17:50:26.777Z,101424.70
2019-05-22T17:52:51.445Z,101426.11
2019-05-22T17:55:20.255Z,101424.95
2019-05-22T17:57:46.972Z,101429.64
2019-05-22T18:00:20.340Z,101428.57
2019-05-22T18:02:45.950Z,101423.55
2019-05-22T18:05:12.191Z,101424.05
2019-05-22T18:07:38.818Z,101430.20
2019-05-22T18:10:08.564Z,101426.21
2019-05-22T18:12:34.848Z,101425.83
2019-05-22T18:15:01.108Z,101423.87
2019-05-22T18:17:28.355Z,101428.70
2019-05-22T18:19:56.703Z,101433.55
2019-05-22T18:22:22.517Z,101424.85
2019-05-22T18:24:48.075Z,101430.99
2019-05-22T18:27:31.737Z,101430.42
2019-05-22T18:29:57.873Z,101423.30
2019-05-22T18:32:23.645Z,101429.69
2019-05-22T18:34:49.109Z,101430.30
2019-05-22T18:37:14.585Z,101426.25
2019-05-22T18:39:40.188Z,101418.11
2019-05-22T18:42:05.690Z,101425.88
2019-05-22T18:44:31.187Z,101428.06
2019-05-22T18:46:56.950Z,101426.44
2019-05-22T18:49:22.309Z,101425.64
2019-05-22T18:51:48.147Z,101428.45
2019-05-22T18:54:13.623Z,101432.41
2019-05-22T18:56:39.074Z,101428.08
2019-05-22T18:59:04.921Z,101433.14
2019-05-22T19:01:30.628Z,101433.44
2019-05-22T19:03:56.068Z,101431.06
2019-05-22T19:06:30.110Z,101432.27
2019-05-22T19:08:50.167Z,101432.45
2019-05-22T19:11:15.743Z,101435.52
2019-05-22T19:13:41.288Z,101437.84
2019-05-22T19:16:07.500Z,101435.66
2019-05-22T19:18:32.937Z,101442.95
2019-05-22T19:20:58.806Z,101443.09
2019-05-22T19:23:24.364Z,101446.91
2019-05-22T19:25:50.107Z,101450.63
2019-05-22T19:28:15.657Z,101455.28
2019-05-22T19:30:41.773Z,101452.87
2019-05-22T19:33:07.401Z,101458.77
2019-05-22T19:35:32.866Z,101462.55
2019-05-22T19:38:00.738Z,101461.01
2019-05-22T19:40:26.273Z,101466.44
2019-05-22T19:42:52.159Z,101467.61
2019-05-22T19:45:19.201Z,101463.89
2019-05-22T19:47:52.885Z,101466.53
2019-05-22T19:50:23.666Z,101464.91
2019-05-22T19:52:48.727Z,101474.67
2019-05-22T19:55:17.271Z,101474.17
2019-05-22T19:57:43.418Z,101481.25
2019-05-22T20:00:10.013Z,101481.63
2019-05-22T20:02:36.538Z,101476.30
2019-05-22T20:05:02.157Z,101483.80
2019-05-22T20:07:27.538Z,101480.45
2019-05-22T20:09:54.519Z,101478.14
2019-05-22T20:12:20.014Z,101486.36
2019-05-22T20:14:46.561Z,101487.52
2019-05-22T20:17:12.615Z,101489.83
2019-05-22T20:19:38.166Z,101492.85
2019-05-22T20:22:04.342Z,101493.53
2019-05-22T20:24:29.969Z,101486.57
2019-05-22T20:26:55.900Z,101489.81
2019-05-22T20:29:22.117Z,101496.25
2019-05-22T20:31:47.657Z,101495.52
2019-05-22T20:34:13.701Z,101491.34
2019-05-22T20:36:39.755Z,101491.69
2019-05-22T20:39:09.427Z,101492.41
2019-05-22T20:41:58.026Z,101495.23
2019-05-22T20:44:24.037Z,101493.66
2019-05-22T20:46:51.318Z,101495.59
2019-05-22T20:49:17.342Z,101489.34
2019-05-22T20:51:43.980Z,101492.24
2019-05-22T20:54:11.429Z,101488.91
2019-05-22T20:56:39.939Z,101498.17
2019-05-22T20:59:06.588Z,101497.66
2019-05-22T21:01:33.223Z,101498.91
2019-05-22T21:04:03.970Z,101493.86
2019-05-22T21:06:32.634Z,101500.73
2019-05-22T21:09:00.840Z,101496.16
2019-05-22T21:11:29.895Z,101500.36
2019-05-22T21:13:55.505Z,101500.03
2019-05-22T21:16:21.022Z,101506.94
2019-05-22T21:18:51.996Z,101505.46
2019-05-22T21:21:19.301Z,101511.94
2019-05-22T21:23:44.943Z,101510.70
2019-05-22T21:26:11.390Z,101517.81
2019-05-22T21:28:37.612Z,101512.16
2019-05-22T21:31:14.477Z,101518.20
2019-05-22T21:33:40.370Z,101519.81
2019-05-22T21:36:08.517Z,101522.52
2019-05-22T21:38:34.257Z,101521.70
2019-05-22T21:41:00.312Z,101522.80
2019-05-22T21:43:25.896Z,101522.98
2019-05-22T21:45:51.783Z,101524.03
2019-05-22T21:48:17.534Z,101528.52
2019-05-22T21:50:43.247Z,101529.27
2019-05-22T21:53:12.927Z,101524.34
2019-05-22T21:55:39.567Z,101526.77
2019-05-22T21:58:06.000Z,101522.63
2019-05-22T22:00:53.856Z,101521.56
2019-05-22T22:03:24.271Z,101527.13
2019-05-22T22:05:50.275Z,101530.36
2019-05-22T22:08:16.220Z,101524.59
2019-05-22T22:10:43.660Z,101532.30
2019-05-22T22:13:09.212Z,101531.02
2019-05-22T22:15:41.043Z,101530.48
2019-05-22T22:18:07.928Z,101533.47
2019-05-22T22:20:33.741Z,101530.27
2019-05-22T22:22:59.893Z,101533.90
2019-05-22T22:25:26.173Z,101531.02
2019-05-22T22:27:54.598Z,101532.84
2019-05-22T22:30:30.491Z,101545.20
2019-05-22T22:32:59.857Z,101543.08
2019-05-22T22:35:25.925Z,101545.86
2019-05-22T22:37:51.803Z,101541.36
2019-05-22T22:40:22.305Z,101541.44
2019-05-22T22:42:50.157Z,101550.81
2019-05-22T22:45:24.167Z,101547.92
2019-05-22T22:47:51.786Z,101550.91
2019-05-22T22:50:19.429Z,101544.83
2019-05-22T22:52:47.028Z,101547.92
2019-05-22T22:55:17.469Z,101549.03
2019-05-22T22:57:43.097Z,101552.08
2019-05-22T23:00:12.314Z,101549.28
2019-05-22T23:02:40.182Z,101550.69
2019-05-22T23:05:07.698Z,101544.83
2019-05-22T23:07:36.044Z,101543.58
2019-05-22T23:10:08.746Z,101537.06
2019-05-22T23:12:37.855Z,101547.80
2019-05-22T23:15:05.028Z,101539.31
2019-05-22T23:17:32.583Z,101538.20
2019-05-22T23:19:55.688Z,101538.98
2019-05-22T23:22:21.893Z,101535.36
2019-05-22T23:24:52.050Z,101537.58
2019-05-22T23:27:19.493Z,101531.66
2019-05-22T23:29:46.761Z,101530.78
2019-05-22T23:32:14.977Z,101535.56
2019-05-22T23:34:40.437Z,101533.94
2019-05-22T23:37:07.560Z,101534.28
2019-05-22T23:39:33.746Z,101533.63
2019-05-22T23:42:05.137Z,101533.26
2019-05-22T23:44:34.322Z,101532.48
2019-05-22T23:47:00.350Z,101539.97
2019-05-22T23:49:26.203Z,101535.45
2019-05-22T23:51:53.150Z,101538.05
2019-05-22T23:54:20.896Z,101539.04
2019-05-22T23:56:49.292Z,101536.81
2019-05-22T23:59:16.730Z,101530.85
